Eugene, Oregon
Current Conditions -  °F | °C
As of 5:54 AM on Sunday 21 Dec 2014 (Local Time) from KEUG Reporting Station
Light Rain Light Rain  
Wind Chill: 56°   Ceiling: 3500
Heat Index: 56°   Visibility: 10mi
Dew Point: 54°   Wind: 8mph
Humidity: 93%   Direction: 220°SW
Pressure: 30"   Gusts: NA
Location:  44.05°N, 123.08°W
Report Text: KEUG 211354Z 22007KT 10SM -RA SCT020 BKN035 OVC080 13/12 A3000 RMK AO2 SLP160 P0002 T01330122
Loading
Personal Weather Stations






























Interactive Weather Map New forecast layout! Learn more

10-Day Weather Forecast

Advertisements
Track Severe Weather on mobile